TKJ7GU LTFJ-LTBS
Flight info
| Callsign | TKJ7GU |
|---|---|
| Flight time | 0h 59m |
| Altitude | 32000 |
| Route | ROXUK UT409 NUMTI UT241 DEN/N0439F310 UW87 LAVTA W87 ATSAL |
| Aircraft | B738/M-SDGIJ1LRWY/SB1 |
Departure
| Time | 2026-05-04 17:26 |
|---|---|
| Airport | Istanbul Sabiha Gökçen International Airport (LTFJ) |
Arrival
| Time | 2026-05-04 18:25 |
|---|---|
| Airport | Dalaman International Airport (LTBS) |
| Time | Latitude | Longitude | Altitude | Speed | Heading |
|---|---|---|---|---|---|
| 2026-05-04 17:16 | 40.90698 | 29.32062 | 321 ft | 2 kts | 333° |
| 2026-05-04 17:17 | 40.90684 | 29.32063 | 321 ft | 2 kts | 22° |
| 2026-05-04 17:17 | 40.90670 | 29.32043 | 321 ft | 0 kts | 64° |
| 2026-05-04 17:21 | 40.90672 | 29.32048 | 321 ft | 1 kts | 64° |
| 2026-05-04 17:22 | 40.90680 | 29.32068 | 321 ft | 4 kts | 62° |
| 2026-05-04 17:22 | 40.90700 | 29.32120 | 321 ft | 8 kts | 62° |
| 2026-05-04 17:23 | 40.90658 | 29.32315 | 321 ft | 8 kts | 153° |
| 2026-05-04 17:23 | 40.90616 | 29.32354 | 321 ft | 6 kts | 123° |
| 2026-05-04 17:23 | 40.90550 | 29.32441 | 321 ft | 6 kts | 153° |
| 2026-05-04 17:24 | 40.90511 | 29.32467 | 321 ft | 5 kts | 153° |
| 2026-05-04 17:24 | 40.90413 | 29.32437 | 321 ft | 0 kts | 243° |
| 2026-05-04 17:25 | 40.90409 | 29.32426 | 321 ft | 1 kts | 243° |
| 2026-05-04 17:25 | 40.90155 | 29.31739 | 322 ft | 104 kts | 243° |
| 2026-05-04 17:26 | 40.89234 | 29.29310 | 861 ft | 160 kts | 245° |
| 2026-05-04 17:26 | 40.87809 | 29.25058 | 2191 ft | 191 kts | 251° |
| 2026-05-04 17:27 | 40.86524 | 29.21799 | 2864 ft | 221 kts | 240° |
| 2026-05-04 17:27 | 40.84927 | 29.18012 | 3483 ft | 258 kts | 240° |
| 2026-05-04 17:28 | 40.81555 | 29.16069 | 4154 ft | 297 kts | 172° |
| 2026-05-04 17:29 | 40.75960 | 29.19480 | 6143 ft | 303 kts | 149° |
| 2026-05-04 17:29 | 40.70144 | 29.23185 | 8174 ft | 314 kts | 151° |
| 2026-05-04 17:30 | 40.64156 | 29.26900 | 10200 ft | 323 kts | 150° |
| 2026-05-04 17:31 | 40.59930 | 29.29541 | 11024 ft | 349 kts | 150° |
| 2026-05-04 17:31 | 40.52957 | 29.33877 | 12104 ft | 390 kts | 150° |
| 2026-05-04 17:32 | 40.48088 | 29.37004 | 13558 ft | 390 kts | 144° |
| 2026-05-04 17:33 | 40.41606 | 29.43400 | 15595 ft | 394 kts | 135° |
| 2026-05-04 17:33 | 40.39496 | 29.45701 | 16277 ft | 397 kts | 135° |
| 2026-05-04 17:34 | 40.32982 | 29.52639 | 18122 ft | 410 kts | 136° |
| 2026-05-04 17:34 | 40.30748 | 29.54969 | 18714 ft | 413 kts | 136° |
| 2026-05-04 17:35 | 40.23846 | 29.62035 | 20385 ft | 428 kts | 138° |
| 2026-05-04 17:35 | 40.18538 | 29.65707 | 21409 ft | 447 kts | 157° |
| 2026-05-04 17:35 | 40.15513 | 29.66780 | 21914 ft | 455 kts | 164° |
| 2026-05-04 17:36 | 40.12342 | 29.67542 | 22451 ft | 460 kts | 167° |
| 2026-05-04 17:36 | 40.09167 | 29.68152 | 22946 ft | 465 kts | 168° |
| 2026-05-04 17:36 | 40.05940 | 29.68720 | 23414 ft | 469 kts | 169° |
| 2026-05-04 17:36 | 40.02725 | 29.69286 | 23905 ft | 472 kts | 169° |
| 2026-05-04 17:37 | 39.99465 | 29.69876 | 24430 ft | 475 kts | 168° |
| 2026-05-04 17:37 | 39.96151 | 29.70492 | 24917 ft | 478 kts | 169° |
| 2026-05-04 17:37 | 39.92833 | 29.70784 | 25341 ft | 487 kts | 178° |
| 2026-05-04 17:37 | 39.89410 | 29.70427 | 25804 ft | 494 kts | 187° |
| 2026-05-04 17:38 | 39.86054 | 29.69391 | 26276 ft | 498 kts | 197° |
| 2026-05-04 17:38 | 39.82817 | 29.67703 | 26754 ft | 501 kts | 206° |
| 2026-05-04 17:38 | 39.79783 | 29.65570 | 27503 ft | 496 kts | 211° |
| 2026-05-04 17:38 | 39.76848 | 29.63219 | 28137 ft | 493 kts | 214° |
| 2026-05-04 17:39 | 39.71094 | 29.58369 | 29236 ft | 493 kts | 214° |
| 2026-05-04 17:39 | 39.68232 | 29.55977 | 29788 ft | 492 kts | 214° |
| 2026-05-04 17:39 | 39.65336 | 29.53601 | 30389 ft | 489 kts | 213° |
| 2026-05-04 17:40 | 39.63694 | 29.52268 | 30708 ft | 488 kts | 214° |
| 2026-05-04 17:40 | 39.60869 | 29.49898 | 31290 ft | 484 kts | 216° |
| 2026-05-04 17:40 | 39.58098 | 29.47462 | 31854 ft | 479 kts | 217° |
| 2026-05-04 17:40 | 39.55347 | 29.44991 | 31987 ft | 481 kts | 217° |
| 2026-05-04 17:41 | 39.49889 | 29.40058 | 32006 ft | 477 kts | 217° |
| 2026-05-04 17:41 | 39.44428 | 29.35181 | 32006 ft | 476 kts | 217° |
| 2026-05-04 17:42 | 39.38960 | 29.30358 | 32016 ft | 476 kts | 216° |
| 2026-05-04 17:42 | 39.33517 | 29.25588 | 32011 ft | 475 kts | 216° |
| 2026-05-04 17:43 | 39.28052 | 29.20813 | 32005 ft | 475 kts | 216° |
| 2026-05-04 17:43 | 39.22559 | 29.16024 | 31994 ft | 476 kts | 216° |
| 2026-05-04 17:44 | 39.17084 | 29.11261 | 31997 ft | 475 kts | 216° |
| 2026-05-04 17:44 | 39.11609 | 29.06510 | 31996 ft | 476 kts | 216° |
| 2026-05-04 17:45 | 39.06118 | 29.01759 | 31987 ft | 474 kts | 216° |
| 2026-05-04 17:45 | 39.00636 | 28.97019 | 31999 ft | 475 kts | 216° |
| 2026-05-04 17:46 | 38.95164 | 28.92296 | 32004 ft | 473 kts | 216° |
| 2026-05-04 17:46 | 38.89686 | 28.87581 | 32007 ft | 473 kts | 216° |
| 2026-05-04 17:47 | 38.84242 | 28.82900 | 32024 ft | 472 kts | 216° |
| 2026-05-04 17:47 | 38.78775 | 28.78210 | 32030 ft | 470 kts | 216° |
| 2026-05-04 17:48 | 38.73329 | 28.73547 | 32035 ft | 471 kts | 216° |
| 2026-05-04 17:48 | 38.67907 | 28.68910 | 32038 ft | 470 kts | 216° |
| 2026-05-04 17:49 | 38.62461 | 28.64316 | 32039 ft | 471 kts | 213° |
| 2026-05-04 17:49 | 38.56425 | 28.61085 | 32033 ft | 472 kts | 189° |
| 2026-05-04 17:50 | 38.53183 | 28.60791 | 32037 ft | 470 kts | 178° |
| 2026-05-04 17:50 | 38.49890 | 28.61007 | 32029 ft | 469 kts | 174° |
| 2026-05-04 17:50 | 38.43419 | 28.61778 | 32028 ft | 466 kts | 172° |
| 2026-05-04 17:51 | 38.36951 | 28.62635 | 32025 ft | 467 kts | 172° |
| 2026-05-04 17:51 | 38.30495 | 28.63458 | 31849 ft | 463 kts | 172° |
| 2026-05-04 17:52 | 38.27328 | 28.63846 | 31592 ft | 457 kts | 173° |
| 2026-05-04 17:52 | 38.24180 | 28.64225 | 31331 ft | 452 kts | 172° |
| 2026-05-04 17:52 | 38.21048 | 28.64599 | 31074 ft | 451 kts | 172° |
| 2026-05-04 17:52 | 38.17944 | 28.64969 | 30819 ft | 451 kts | 172° |
| 2026-05-04 17:53 | 38.14831 | 28.65338 | 30559 ft | 449 kts | 172° |
| 2026-05-04 17:53 | 38.11725 | 28.65705 | 30303 ft | 446 kts | 172° |
| 2026-05-04 17:53 | 38.08650 | 28.66066 | 30030 ft | 446 kts | 172° |
| 2026-05-04 17:53 | 38.05538 | 28.66431 | 29754 ft | 446 kts | 172° |
| 2026-05-04 17:54 | 38.02462 | 28.66792 | 29487 ft | 441 kts | 172° |
| 2026-05-04 17:54 | 37.99392 | 28.67150 | 29217 ft | 440 kts | 173° |
| 2026-05-04 17:54 | 37.96374 | 28.67502 | 28954 ft | 438 kts | 173° |
| 2026-05-04 17:54 | 37.93308 | 28.67861 | 28687 ft | 438 kts | 173° |
| 2026-05-04 17:55 | 37.90292 | 28.68212 | 28426 ft | 437 kts | 173° |
| 2026-05-04 17:55 | 37.87287 | 28.68560 | 28161 ft | 434 kts | 173° |
| 2026-05-04 17:55 | 37.84285 | 28.68907 | 27887 ft | 433 kts | 173° |
| 2026-05-04 17:55 | 37.81267 | 28.69258 | 27493 ft | 432 kts | 173° |
| 2026-05-04 17:56 | 37.78310 | 28.69605 | 26999 ft | 429 kts | 174° |
| 2026-05-04 17:56 | 37.75329 | 28.69953 | 26487 ft | 426 kts | 174° |
| 2026-05-04 17:56 | 37.72405 | 28.70293 | 25984 ft | 424 kts | 174° |
| 2026-05-04 17:56 | 37.69466 | 28.70594 | 25468 ft | 421 kts | 175° |
| 2026-05-04 17:57 | 37.66577 | 28.70820 | 24982 ft | 418 kts | 176° |
| 2026-05-04 17:57 | 37.63661 | 28.71014 | 24468 ft | 416 kts | 177° |
| 2026-05-04 17:57 | 37.60801 | 28.71195 | 23975 ft | 414 kts | 177° |
| 2026-05-04 17:57 | 37.57932 | 28.71377 | 23480 ft | 411 kts | 177° |
| 2026-05-04 17:58 | 37.55089 | 28.71562 | 22990 ft | 409 kts | 177° |
| 2026-05-04 17:58 | 37.52236 | 28.71661 | 22493 ft | 406 kts | 182° |
| 2026-05-04 17:58 | 37.49440 | 28.71337 | 22001 ft | 402 kts | 193° |
| 2026-05-04 17:58 | 37.46764 | 28.70428 | 21504 ft | 397 kts | 201° |
| 2026-05-04 17:59 | 37.44183 | 28.69230 | 21011 ft | 394 kts | 205° |
| 2026-05-04 17:59 | 37.41647 | 28.67927 | 20518 ft | 391 kts | 206° |
| 2026-05-04 17:59 | 37.36678 | 28.65304 | 19552 ft | 385 kts | 207° |
| 2026-05-04 18:00 | 37.34211 | 28.64016 | 19072 ft | 383 kts | 207° |
| 2026-05-04 18:00 | 37.31754 | 28.62746 | 18597 ft | 380 kts | 206° |
| 2026-05-04 18:00 | 37.29340 | 28.61508 | 18126 ft | 377 kts | 207° |
| 2026-05-04 18:00 | 37.26906 | 28.60269 | 17643 ft | 375 kts | 207° |
| 2026-05-04 18:01 | 37.24458 | 28.59139 | 17147 ft | 375 kts | 201° |
| 2026-05-04 18:01 | 37.21910 | 28.58555 | 16637 ft | 380 kts | 184° |
| 2026-05-04 18:01 | 37.19281 | 28.58940 | 16140 ft | 381 kts | 169° |
| 2026-05-04 18:02 | 37.14734 | 28.61970 | 15431 ft | 365 kts | 128° |
| 2026-05-04 18:02 | 37.13399 | 28.64564 | 15318 ft | 345 kts | 111° |
| 2026-05-04 18:02 | 37.12568 | 28.67319 | 14939 ft | 337 kts | 97° |
| 2026-05-04 18:02 | 37.12466 | 28.70179 | 14479 ft | 323 kts | 76° |
| 2026-05-04 18:03 | 37.12840 | 28.72905 | 14097 ft | 317 kts | 71° |
| 2026-05-04 18:03 | 37.13295 | 28.75612 | 13723 ft | 314 kts | 71° |
| 2026-05-04 18:03 | 37.13736 | 28.78274 | 13352 ft | 312 kts | 71° |
| 2026-05-04 18:03 | 37.14142 | 28.80917 | 12984 ft | 310 kts | 72° |
| 2026-05-04 18:04 | 37.14523 | 28.83579 | 12611 ft | 307 kts | 72° |
| 2026-05-04 18:04 | 37.14887 | 28.86183 | 12244 ft | 305 kts | 72° |
| 2026-05-04 18:04 | 37.15600 | 28.91397 | 11504 ft | 301 kts | 74° |
| 2026-05-04 18:05 | 37.15714 | 28.94022 | 11140 ft | 307 kts | 87° |
| 2026-05-04 18:05 | 37.15062 | 28.96577 | 10966 ft | 315 kts | 117° |
| 2026-05-04 18:05 | 37.13635 | 28.98628 | 10770 ft | 314 kts | 133° |
| 2026-05-04 18:05 | 37.11953 | 29.00438 | 10334 ft | 318 kts | 136° |
| 2026-05-04 18:06 | 37.08517 | 29.03806 | 9672 ft | 316 kts | 144° |
| 2026-05-04 18:06 | 37.06515 | 29.04997 | 9365 ft | 316 kts | 163° |
| 2026-05-04 18:06 | 37.04330 | 29.05168 | 8829 ft | 316 kts | 194° |
| 2026-05-04 18:07 | 37.02314 | 29.04203 | 8028 ft | 316 kts | 213° |
| 2026-05-04 18:07 | 37.00462 | 29.02733 | 7258 ft | 316 kts | 217° |
| 2026-05-04 18:07 | 36.98641 | 29.01185 | 6666 ft | 310 kts | 216° |
| 2026-05-04 18:07 | 36.96887 | 28.99756 | 6214 ft | 301 kts | 214° |
| 2026-05-04 18:08 | 36.95091 | 28.98365 | 5453 ft | 304 kts | 213° |
| 2026-05-04 18:08 | 36.93398 | 28.96880 | 5024 ft | 292 kts | 220° |
| 2026-05-04 18:08 | 36.91844 | 28.95297 | 4599 ft | 282 kts | 221° |
| 2026-05-04 18:08 | 36.90396 | 28.93756 | 4302 ft | 269 kts | 222° |
| 2026-05-04 18:09 | 36.87714 | 28.90881 | 3785 ft | 239 kts | 222° |
| 2026-05-04 18:09 | 36.85277 | 28.88412 | 3378 ft | 209 kts | 214° |
| 2026-05-04 18:10 | 36.84064 | 28.87505 | 3245 ft | 202 kts | 210° |
| 2026-05-04 18:10 | 36.82831 | 28.86642 | 2759 ft | 208 kts | 210° |
| 2026-05-04 18:10 | 36.81578 | 28.85744 | 2374 ft | 209 kts | 212° |
| 2026-05-04 18:10 | 36.80334 | 28.84823 | 2146 ft | 193 kts | 214° |
| 2026-05-04 18:11 | 36.79301 | 28.83901 | 1870 ft | 179 kts | 220° |
| 2026-05-04 18:11 | 36.78328 | 28.82996 | 1574 ft | 165 kts | 218° |
| 2026-05-04 18:11 | 36.77452 | 28.82223 | 1346 ft | 152 kts | 216° |
| 2026-05-04 18:11 | 36.76481 | 28.81502 | 1110 ft | 161 kts | 212° |
| 2026-05-04 18:12 | 36.75483 | 28.80850 | 834 ft | 165 kts | 206° |
| 2026-05-04 18:12 | 36.74395 | 28.80429 | 845 ft | 173 kts | 196° |
| 2026-05-04 18:12 | 36.73164 | 28.80034 | 1041 ft | 186 kts | 197° |
| 2026-05-04 18:12 | 36.71884 | 28.79595 | 1004 ft | 195 kts | 198° |
| 2026-05-04 18:13 | 36.70693 | 28.78710 | 1386 ft | 210 kts | 229° |
| 2026-05-04 18:13 | 36.69664 | 28.77351 | 1845 ft | 227 kts | 227° |
| 2026-05-04 18:13 | 36.66894 | 28.74984 | 3289 ft | 250 kts | 212° |
| 2026-05-04 18:14 | 36.65373 | 28.73914 | 4130 ft | 255 kts | 212° |
| 2026-05-04 18:14 | 36.63839 | 28.72850 | 4822 ft | 257 kts | 208° |
| 2026-05-04 18:14 | 36.62090 | 28.72364 | 5493 ft | 267 kts | 173° |
| 2026-05-04 18:15 | 36.59219 | 28.74859 | 7110 ft | 261 kts | 120° |
| 2026-05-04 18:15 | 36.57194 | 28.78683 | 8600 ft | 270 kts | 110° |
| 2026-05-04 18:15 | 36.56778 | 28.80883 | 8975 ft | 262 kts | 78° |
| 2026-05-04 18:16 | 36.57301 | 28.82952 | 9014 ft | 243 kts | 52° |
| 2026-05-04 18:16 | 36.58189 | 28.84732 | 9007 ft | 241 kts | 52° |
| 2026-05-04 18:16 | 36.59257 | 28.86398 | 9025 ft | 254 kts | 36° |
| 2026-05-04 18:17 | 36.62060 | 28.89233 | 8773 ft | 262 kts | 28° |
| 2026-05-04 18:17 | 36.63672 | 28.90280 | 8299 ft | 261 kts | 19° |
| 2026-05-04 18:17 | 36.67088 | 28.91843 | 7296 ft | 263 kts | 17° |
| 2026-05-04 18:18 | 36.68815 | 28.92566 | 6798 ft | 264 kts | 17° |
| 2026-05-04 18:18 | 36.70553 | 28.93266 | 6298 ft | 265 kts | 17° |
| 2026-05-04 18:18 | 36.72327 | 28.93953 | 5793 ft | 266 kts | 16° |
| 2026-05-04 18:18 | 36.74105 | 28.94630 | 5288 ft | 267 kts | 16° |
| 2026-05-04 18:19 | 36.77647 | 28.95970 | 4521 ft | 260 kts | 17° |
| 2026-05-04 18:19 | 36.79342 | 28.96599 | 4512 ft | 245 kts | 16° |
| 2026-05-04 18:19 | 36.81003 | 28.96864 | 4494 ft | 245 kts | 353° |
| 2026-05-04 18:20 | 36.82576 | 28.95991 | 4194 ft | 252 kts | 321° |
| 2026-05-04 18:20 | 36.83620 | 28.94310 | 4051 ft | 237 kts | 306° |
| 2026-05-04 18:20 | 36.84442 | 28.92651 | 4059 ft | 210 kts | 307° |
| 2026-05-04 18:20 | 36.85212 | 28.91189 | 4271 ft | 197 kts | 309° |
| 2026-05-04 18:21 | 36.85984 | 28.89747 | 3939 ft | 205 kts | 308° |
| 2026-05-04 18:21 | 36.86753 | 28.88360 | 3973 ft | 183 kts | 308° |
| 2026-05-04 18:21 | 36.87144 | 28.86872 | 4006 ft | 184 kts | 271° |
| 2026-05-04 18:21 | 36.86697 | 28.85450 | 4000 ft | 173 kts | 236° |
| 2026-05-04 18:22 | 36.85817 | 28.84458 | 4032 ft | 170 kts | 213° |
| 2026-05-04 18:22 | 36.84730 | 28.83864 | 4021 ft | 172 kts | 198° |
| 2026-05-04 18:22 | 36.83532 | 28.83453 | 3709 ft | 181 kts | 193° |
| 2026-05-04 18:22 | 36.82328 | 28.83123 | 3409 ft | 171 kts | 193° |
| 2026-05-04 18:23 | 36.81197 | 28.82735 | 3035 ft | 167 kts | 199° |
| 2026-05-04 18:23 | 36.80100 | 28.82237 | 2603 ft | 169 kts | 201° |
| 2026-05-04 18:23 | 36.78976 | 28.81833 | 2132 ft | 170 kts | 192° |
| 2026-05-04 18:23 | 36.77832 | 28.81486 | 1682 ft | 168 kts | 193° |
| 2026-05-04 18:24 | 36.76701 | 28.81108 | 1154 ft | 171 kts | 197° |
| 2026-05-04 18:24 | 36.75567 | 28.80710 | 719 ft | 166 kts | 198° |
| 2026-05-04 18:24 | 36.74493 | 28.80345 | 434 ft | 155 kts | 198° |
| 2026-05-04 18:24 | 36.73480 | 28.79997 | 211 ft | 148 kts | 197° |
| 2026-05-04 18:25 | 36.72464 | 28.79650 | 76 ft | 153 kts | 196° |
| 2026-05-04 18:25 | 36.71483 | 28.79308 | 19 ft | 126 kts | 195° |
| 2026-05-04 18:25 | 36.70876 | 28.79098 | 16 ft | 51 kts | 196° |
| 2026-05-04 18:25 | 36.70690 | 28.78994 | 13 ft | 23 kts | 214° |
| 2026-05-04 18:26 | 36.70627 | 28.78932 | 14 ft | 7 kts | 220° |
| 2026-05-04 18:26 | 36.70597 | 28.78899 | 14 ft | 4 kts | 225° |
| 2026-05-04 18:26 | 36.70580 | 28.78874 | 15 ft | 3 kts | 242° |
| 2026-05-04 18:26 | 36.70589 | 28.78809 | 16 ft | 12 kts | 319° |